Time;durP1;ratioP1;P1;durP2;ratioP2;P2;SDS_P1;SDS_P2;PMS_P1;PMS_P2;Temp;Humidity;BMP_temperature;BMP_pressure;BME280_temperature;BME280_humidity;BME280_pressure;Samples;Min_cycle;Max_cycle;Signal;HPM_P1;HPM_P2
2022/05/23 00:00:02;;;;;;;12.73;11.83;;;17.40;99.90;;;;;;4978441;28;20477;-75
2022/05/23 00:02:29;;;;;;;14.10;12.77;;;17.40;99.90;;;;;;4975945;28;20518;-76
2022/05/23 00:04:55;;;;;;;12.40;11.43;;;17.40;99.90;;;;;;4975525;28;20487;-75
2022/05/23 00:07:27;;;;;;;12.87;12.00;;;17.30;99.90;;;;;;4975141;28;21093;-74
2022/05/23 00:09:54;;;;;;;12.07;11.40;;;17.30;99.90;;;;;;4975193;28;20451;-75
2022/05/23 00:12:22;;;;;;;12.53;11.80;;;17.40;99.90;;;;;;4974748;28;20452;-74
2022/05/23 00:14:50;;;;;;;14.00;12.87;;;17.30;99.90;;;;;;4975178;28;20471;-74
2022/05/23 00:17:17;;;;;;;12.13;11.53;;;17.10;99.90;;;;;;4974938;28;20463;-73
2022/05/23 00:19:44;;;;;;;12.90;12.07;;;17.10;99.90;;;;;;4974940;28;20455;-75
2022/05/23 00:22:11;;;;;;;13.13;12.20;;;17.00;99.90;;;;;;4974993;28;20487;-73
2022/05/23 00:24:41;;;;;;;12.87;12.07;;;16.80;99.90;;;;;;4974871;28;20488;-74
2022/05/23 00:27:09;;;;;;;11.90;11.33;;;16.90;99.90;;;;;;4975161;28;20460;-73
2022/05/23 00:29:37;;;;;;;11.73;11.23;;;16.90;99.90;;;;;;4974909;28;20459;-73
2022/05/23 00:37:33;;;;;;;12.97;12.17;;;17.10;99.90;;;;;;4974745;28;20454;-74
2022/05/23 00:40:00;;;;;;;12.17;11.57;;;17.10;99.90;;;;;;4974533;28;20479;-74
2022/05/23 00:45:16;;;;;;;12.20;11.60;;;17.00;99.90;;;;;;4974545;28;21116;-74
2022/05/23 00:47:43;;;;;;;12.77;12.20;;;16.90;99.90;;;;;;4974922;28;20511;-77
2022/05/23 00:50:11;;;;;;;12.40;11.80;;;16.80;99.90;;;;;;4974485;28;20455;-77
2022/05/23 00:52:43;;;;;;;12.43;11.83;;;16.70;99.90;;;;;;4974176;28;20888;-77
2022/05/23 00:55:16;;;;;;;12.60;11.77;;;16.70;99.90;;;;;;4974480;28;20459;-77
2022/05/23 00:57:46;;;;;;;12.70;12.10;;;16.60;99.90;;;;;;4974710;28;20460;-77
2022/05/23 01:00:15;;;;;;;12.17;11.47;;;16.70;99.90;;;;;;4974417;28;20973;-77
2022/05/23 01:02:44;;;;;;;12.10;11.60;;;16.60;99.90;;;;;;4974454;28;20510;-77
2022/05/23 01:05:11;;;;;;;13.23;12.23;;;16.60;99.90;;;;;;4973969;28;20487;-78
2022/05/23 01:07:38;;;;;;;12.30;11.80;;;16.60;99.90;;;;;;4974149;28;20949;-77
2022/05/23 01:10:06;;;;;;;11.80;11.10;;;16.60;99.90;;;;;;4973970;28;20677;-77
2022/05/23 01:12:33;;;;;;;13.20;12.50;;;16.40;99.90;;;;;;4974078;28;20451;-78
2022/05/23 01:15:03;;;;;;;12.50;11.90;;;16.40;99.90;;;;;;4973706;28;20467;-77
2022/05/23 01:17:31;;;;;;;13.23;12.43;;;16.40;99.90;;;;;;4974034;28;20820;-78
2022/05/23 01:19:58;;;;;;;12.90;12.20;;;16.30;99.90;;;;;;4974088;28;20452;-78
2022/05/23 01:22:31;;;;;;;12.87;12.27;;;16.20;99.90;;;;;;4973921;28;20950;-78
2022/05/23 01:25:07;;;;;;;12.60;12.00;;;16.20;99.90;;;;;;4973851;28;21013;-77
2022/05/23 01:27:37;;;;;;;11.97;11.40;;;16.20;99.90;;;;;;4973546;28;20452;-78
2022/05/23 01:30:05;;;;;;;12.80;12.00;;;16.20;99.90;;;;;;4973685;28;20451;-77
2022/05/23 01:32:31;;;;;;;17.03;13.13;;;16.10;99.90;;;;;;4973799;28;20502;-77
2022/05/23 01:34:58;;;;;;;12.90;12.10;;;16.10;99.90;;;;;;4973782;28;20455;-77
2022/05/23 01:37:26;;;;;;;13.43;12.37;;;16.10;99.90;;;;;;4973438;28;20800;-75
2022/05/23 01:39:52;;;;;;;14.30;12.40;;;16.10;99.90;;;;;;4973571;28;20483;-74
2022/05/23 01:55:18;;;;;;;13.70;12.73;;;15.90;99.90;;;;;;5517971;23;20563;-75
2022/05/23 01:57:45;;;;;;;13.47;12.23;;;15.90;99.90;;;;;;4980739;28;20975;-76
2022/05/23 02:02:57;;;;;;;12.80;11.90;;;16.00;99.90;;;;;;4980566;28;20473;-75
2022/05/23 02:05:25;;;;;;;12.90;12.10;;;16.00;99.90;;;;;;4975418;28;20542;-76
2022/05/23 02:07:52;;;;;;;12.77;12.10;;;16.00;99.90;;;;;;4972767;28;20456;-75
2022/05/23 02:10:21;;;;;;;12.40;11.90;;;15.90;99.90;;;;;;4972264;28;20459;-75
2022/05/23 02:12:48;;;;;;;12.63;11.90;;;15.90;99.90;;;;;;4972487;28;20486;-75
2022/05/23 02:15:16;;;;;;;12.70;12.10;;;16.00;99.90;;;;;;4972623;28;20448;-75
2022/05/23 02:17:42;;;;;;;12.60;12.00;;;15.90;99.90;;;;;;4972356;28;20448;-75
2022/05/23 02:20:11;;;;;;;12.03;11.53;;;15.90;99.90;;;;;;4972247;28;20451;-76
2022/05/23 02:22:38;;;;;;;14.50;13.00;;;16.00;99.90;;;;;;4972530;28;20451;-76
2022/05/23 02:25:05;;;;;;;12.53;11.93;;;16.00;99.90;;;;;;4971735;28;20495;-76
2022/05/23 02:27:34;;;;;;;12.70;12.00;;;16.00;99.90;;;;;;4971966;28;20458;-76
2022/05/23 02:30:01;;;;;;;12.93;12.00;;;16.00;99.90;;;;;;4972273;28;20470;-75
2022/05/23 02:32:28;;;;;;;12.70;12.00;;;16.00;99.90;;;;;;4972307;28;20467;-75
2022/05/23 02:34:54;;;;;;;14.07;13.30;;;16.10;99.90;;;;;;4971993;28;20455;-75
2022/05/23 02:37:21;;;;;;;13.60;12.80;;;16.00;99.90;;;;;;4972178;28;20456;-75
2022/05/23 02:39:48;;;;;;;13.10;11.80;;;16.00;99.90;;;;;;4972145;28;20528;-76
2022/05/23 02:42:15;;;;;;;13.17;12.30;;;16.00;99.90;;;;;;4972353;28;20819;-76
2022/05/23 02:44:44;;;;;;;12.37;11.53;;;16.10;99.90;;;;;;4972151;28;20498;-75
2022/05/23 02:47:11;;;;;;;12.10;11.50;;;16.10;99.90;;;;;;4972407;28;20452;-75
2022/05/23 02:49:38;;;;;;;11.60;11.10;;;16.10;99.90;;;;;;4971926;28;20945;-75
2022/05/23 02:52:05;;;;;;;12.93;12.33;;;16.10;99.90;;;;;;4972101;28;20447;-76
2022/05/23 02:54:32;;;;;;;12.60;11.90;;;16.10;99.90;;;;;;4971524;28;20968;-75
2022/05/23 02:56:59;;;;;;;13.53;12.10;;;16.00;99.90;;;;;;4972085;28;20827;-75
2022/05/23 02:59:26;;;;;;;12.67;11.97;;;16.10;99.90;;;;;;4971746;28;20459;-76
2022/05/23 03:04:38;;;;;;;13.10;12.50;;;16.00;99.90;;;;;;4982548;28;20493;-76
2022/05/23 03:07:05;;;;;;;13.60;12.73;;;16.00;99.90;;;;;;4971893;28;20467;-75
2022/05/23 03:09:32;;;;;;;13.20;12.30;;;16.00;99.90;;;;;;4971852;28;20455;-75
2022/05/23 03:12:00;;;;;;;13.97;13.10;;;16.00;99.90;;;;;;4971817;28;20455;-75
2022/05/23 03:14:27;;;;;;;15.07;14.17;;;16.00;99.90;;;;;;4971940;28;20447;-75
2022/05/23 03:17:00;;;;;;;14.07;13.17;;;16.00;99.90;;;;;;4971921;28;20451;-75
2022/05/23 03:19:27;;;;;;;14.73;13.87;;;16.00;99.90;;;;;;4972038;28;20589;-75
2022/05/23 03:27:22;;;;;;;14.20;13.40;;;16.00;99.90;;;;;;4971636;28;21066;-75
2022/05/23 03:29:49;;;;;;;13.90;13.30;;;16.00;99.90;;;;;;4971615;28;20459;-75
2022/05/23 03:32:17;;;;;;;12.87;12.23;;;16.00;99.90;;;;;;4971756;28;20460;-75
2022/05/23 03:34:43;;;;;;;12.70;12.13;;;15.90;99.90;;;;;;4971926;28;20444;-72
2022/05/23 03:37:10;;;;;;;14.97;14.20;;;15.80;99.90;;;;;;4971977;28;20467;-74
2022/05/23 03:39:38;;;;;;;14.40;13.33;;;15.90;99.90;;;;;;4975065;28;20462;-75
2022/05/23 03:42:06;;;;;;;14.93;14.10;;;15.90;99.90;;;;;;4975376;28;20511;-76
2022/05/23 03:44:32;;;;;;;14.50;13.80;;;15.90;99.90;;;;;;4975218;28;20900;-77
2022/05/23 03:46:59;;;;;;;13.67;12.93;;;15.80;99.90;;;;;;4975241;28;20444;-76
2022/05/23 03:49:27;;;;;;;14.20;13.47;;;15.80;99.90;;;;;;4975062;28;20463;-75
2022/05/23 03:51:55;;;;;;;14.90;13.73;;;15.80;99.90;;;;;;4975098;28;21064;-77
2022/05/23 03:54:22;;;;;;;14.10;13.20;;;15.90;99.90;;;;;;4974763;28;20924;-76
2022/05/23 03:56:49;;;;;;;14.10;13.30;;;15.90;99.90;;;;;;4974827;28;20447;-75
2022/05/23 03:59:15;;;;;;;14.27;13.50;;;15.90;99.90;;;;;;4974909;28;20451;-75
2022/05/23 04:01:42;;;;;;;14.13;13.47;;;16.00;99.90;;;;;;4975091;28;20451;-75
2022/05/23 04:04:09;;;;;;;14.20;13.50;;;16.10;99.90;;;;;;4977079;28;20868;-74
2022/05/23 04:06:38;;;;;;;13.60;13.00;;;16.20;99.90;;;;;;4983267;28;20754;-75
2022/05/23 04:09:05;;;;;;;13.60;12.83;;;16.40;99.90;;;;;;4975042;28;20511;-79
2022/05/23 04:11:32;;;;;;;30.60;28.50;;;16.40;99.90;;;;;;4975305;28;20946;-72
2022/05/23 04:13:58;;;;;;;38.37;34.83;;;16.40;99.90;;;;;;4983618;28;20443;-72
2022/05/23 04:16:28;;;;;;;38.10;34.60;;;16.10;99.90;;;;;;5003988;28;20449;-75
2022/05/23 04:18:54;;;;;;;38.50;35.10;;;15.90;99.90;;;;;;5001728;28;20516;-80
2022/05/23 04:21:21;;;;;;;38.47;35.40;;;15.70;99.90;;;;;;4999017;28;20524;-75
2022/05/23 04:23:49;;;;;;;39.30;36.40;;;15.60;99.90;;;;;;5002238;28;20446;-75
2022/05/23 04:26:16;;;;;;;40.20;36.87;;;15.60;99.90;;;;;;5009580;28;20848;-76
2022/05/23 04:28:43;;;;;;;37.93;35.33;;;15.50;99.90;;;;;;5013508;28;20849;-76
2022/05/23 04:31:10;;;;;;;37.43;34.73;;;15.50;99.90;;;;;;5013426;28;20453;-76
2022/05/23 04:36:21;;;;;;;35.20;33.00;;;15.60;99.90;;;;;;5013226;28;20955;-75
2022/05/23 04:38:49;;;;;;;35.30;33.07;;;15.60;99.90;;;;;;5012868;28;20450;-76
2022/05/23 04:41:16;;;;;;;35.37;33.03;;;15.60;99.90;;;;;;5012810;28;20947;-75
2022/05/23 04:43:43;;;;;;;35.83;33.73;;;15.60;99.90;;;;;;5011419;28;20457;-74
2022/05/23 04:46:10;;;;;;;36.80;34.40;;;15.60;99.90;;;;;;5010248;28;20489;-74
2022/05/23 04:51:21;;;;;;;34.33;32.53;;;15.70;99.90;;;;;;5012841;28;20421;-76
2022/05/23 04:53:53;;;;;;;32.43;30.70;;;15.80;99.90;;;;;;5012432;28;20477;-72
2022/05/23 04:56:20;;;;;;;33.93;31.40;;;15.80;99.90;;;;;;5012402;28;20509;-73
2022/05/23 04:58:46;;;;;;;35.50;33.10;;;15.80;99.90;;;;;;5012351;28;20450;-71
2022/05/23 05:01:13;;;;;;;36.50;34.10;;;15.80;99.90;;;;;;5012634;28;20500;-75
2022/05/23 05:03:40;;;;;;;35.50;33.00;;;15.80;99.90;;;;;;5012241;28;20461;-75
2022/05/23 05:06:06;;;;;;;34.43;32.03;;;15.80;99.90;;;;;;5012131;28;20493;-75
2022/05/23 05:08:33;;;;;;;33.40;31.20;;;15.70;99.90;;;;;;5012117;28;20450;-74
2022/05/23 05:11:04;;;;;;;32.30;30.20;;;15.70;99.90;;;;;;5012325;28;20460;-74
2022/05/23 05:13:32;;;;;;;34.40;32.03;;;15.70;99.90;;;;;;5012661;28;20450;-74
2022/05/23 05:16:00;;;;;;;35.20;32.40;;;15.70;99.90;;;;;;5012282;28;20541;-73
2022/05/23 05:18:26;;;;;;;35.50;32.90;;;15.70;99.90;;;;;;5012103;28;20502;-73
2022/05/23 05:20:53;;;;;;;33.90;31.60;;;15.70;99.90;;;;;;5011935;28;20519;-72
2022/05/23 05:23:20;;;;;;;35.07;32.60;;;15.70;99.90;;;;;;5011799;28;20450;-72
2022/05/23 05:25:47;;;;;;;36.07;33.77;;;15.70;99.90;;;;;;5012090;28;20490;-75
2022/05/23 05:28:16;;;;;;;36.03;33.63;;;15.80;99.90;;;;;;5012084;28;20460;-72
2022/05/23 05:30:48;;;;;;;35.47;33.13;;;15.90;99.90;;;;;;5011917;28;20520;-73
2022/05/23 05:33:19;;;;;;;34.87;32.47;;;15.90;99.90;;;;;;5012081;28;20848;-73
2022/05/23 05:35:51;;;;;;;33.90;31.70;;;16.00;99.90;;;;;;5012077;28;20456;-72
2022/05/23 05:38:22;;;;;;;34.10;31.80;;;16.00;99.90;;;;;;5011566;28;20465;-72
2022/05/23 05:40:53;;;;;;;33.17;31.07;;;16.10;99.90;;;;;;5011936;28;20450;-73
2022/05/23 05:43:25;;;;;;;34.43;32.23;;;16.00;99.90;;;;;;5011894;28;20852;-73
2022/05/23 05:45:58;;;;;;;33.90;31.70;;;16.00;99.90;;;;;;5010986;28;20830;-72
2022/05/23 05:48:25;;;;;;;33.37;31.20;;;16.00;99.90;;;;;;5011087;28;20450;-72
2022/05/23 05:50:52;;;;;;;35.17;32.80;;;16.00;99.90;;;;;;5011314;28;20450;-72
2022/05/23 05:53:23;;;;;;;34.17;31.87;;;16.00;99.90;;;;;;5011264;28;20474;-73
2022/05/23 05:55:51;;;;;;;35.17;33.07;;;16.10;99.90;;;;;;5009902;28;20465;-71
2022/05/23 05:58:18;;;;;;;36.53;34.13;;;16.10;99.90;;;;;;5011252;28;20490;-73
2022/05/23 06:00:46;;;;;;;33.90;31.90;;;16.10;99.90;;;;;;4996970;28;20478;-71
2022/05/23 06:03:13;;;;;;;33.33;31.33;;;16.20;99.90;;;;;;4991935;28;20451;-71
2022/05/23 06:13:49;;;;;;;26.00;24.80;;;16.40;99.90;;;;;;4991631;28;20469;-73
2022/05/23 06:16:17;;;;;;;21.00;20.00;;;16.70;99.90;;;;;;4991696;28;20447;-73
2022/05/23 06:18:44;;;;;;;17.13;16.27;;;17.10;99.90;;;;;;4991470;28;20521;-72
2022/05/23 06:21:12;;;;;;;15.93;15.07;;;17.60;99.90;;;;;;4991332;28;20447;-71
2022/05/23 06:23:39;;;;;;;16.17;15.47;;;17.70;99.90;;;;;;4990700;28;20454;-74
2022/05/23 06:26:06;;;;;;;16.60;15.57;;;17.60;99.90;;;;;;4991079;28;20584;-73
2022/05/23 06:28:34;;;;;;;16.47;15.57;;;17.60;99.90;;;;;;4991097;28;20527;-74
2022/05/23 06:31:01;;;;;;;16.83;15.93;;;17.60;99.90;;;;;;4991532;28;20509;-76
2022/05/23 06:33:29;;;;;;;16.03;15.33;;;17.50;99.90;;;;;;4992609;28;20991;-74
2022/05/23 06:35:57;;;;;;;18.30;16.83;;;17.50;99.90;;;;;;4992590;28;20458;-74
2022/05/23 06:38:25;;;;;;;16.37;15.57;;;17.50;99.90;;;;;;4993105;28;20462;-75
2022/05/23 06:40:53;;;;;;;17.17;16.07;;;17.60;99.90;;;;;;4992674;28;20522;-77
2022/05/23 06:43:20;;;;;;;16.57;15.37;;;17.80;99.90;;;;;;4992732;28;20834;-76
2022/05/23 06:45:48;;;;;;;15.80;15.00;;;18.00;99.90;;;;;;4993492;28;21012;-77
2022/05/23 06:48:15;;;;;;;15.13;14.43;;;18.00;99.90;;;;;;4992653;28;20454;-81
2022/05/23 06:50:44;;;;;;;15.97;15.17;;;17.90;99.90;;;;;;4992176;28;20466;-81
2022/05/23 06:53:11;;;;;;;16.83;15.80;;;17.90;99.90;;;;;;4991457;28;20992;-80
2022/05/23 06:55:37;;;;;;;17.60;16.53;;;17.80;99.90;;;;;;4991484;28;20537;-79
2022/05/23 06:58:04;;;;;;;17.43;16.30;;;17.90;99.90;;;;;;4991395;28;20558;-79
2022/05/23 07:00:31;;;;;;;16.23;15.43;;;18.00;99.90;;;;;;4991354;28;20447;-80
2022/05/23 07:02:58;;;;;;;16.13;15.33;;;18.10;99.90;;;;;;4991564;28;20486;-80
2022/05/23 07:13:38;;;;;;;15.77;15.07;;;18.90;99.90;;;;;;4944568;28;20449;-80
2022/05/23 07:16:06;;;;;;;15.67;14.87;;;19.40;99.90;;;;;;4995855;28;20944;-79
2022/05/23 07:18:32;;;;;;;16.13;15.27;;;19.80;99.90;;;;;;4995206;28;20458;-79
2022/05/23 07:20:59;;;;;;;16.60;15.70;;;20.20;99.90;;;;;;4994635;28;20967;-78
2022/05/23 07:23:27;;;;;;;15.13;14.23;;;20.60;99.90;;;;;;4994774;28;20545;-79
2022/05/23 07:25:54;;;;;;;15.50;14.70;;;20.70;99.90;;;;;;5004256;28;20501;-82
2022/05/23 07:28:21;;;;;;;15.33;14.60;;;20.60;99.90;;;;;;4996090;28;20454;-78
2022/05/23 07:30:48;;;;;;;15.10;14.30;;;20.40;99.90;;;;;;4994519;28;20478;-78
2022/05/23 07:33:15;;;;;;;14.70;13.90;;;20.40;99.90;;;;;;4995071;28;20458;-81
2022/05/23 07:35:42;;;;;;;14.70;14.00;;;20.50;99.90;;;;;;4994443;28;21089;-80
2022/05/23 07:38:09;;;;;;;15.43;14.50;;;20.50;99.90;;;;;;4995713;28;20454;-81
2022/05/23 07:40:37;;;;;;;14.13;13.53;;;20.40;99.90;;;;;;4994464;28;20818;-79
2022/05/23 07:43:04;;;;;;;16.43;15.50;;;20.20;99.90;;;;;;4994414;28;20451;-79
2022/05/23 07:45:31;;;;;;;14.80;14.00;;;20.30;99.90;;;;;;4994517;28;20463;-80
2022/05/23 07:47:57;;;;;;;15.73;14.97;;;20.80;99.90;;;;;;4993937;28;20815;-78
2022/05/23 07:50:24;;;;;;;15.70;14.30;;;21.60;99.90;;;;;;4994251;28;20459;-78
2022/05/23 08:01:05;;;;;;;15.60;14.30;;;21.90;99.90;;;;;;4995799;28;20452;-77
2022/05/23 08:03:31;;;;;;;14.40;13.60;;;21.80;99.90;;;;;;4994758;28;20807;-75
2022/05/23 08:05:58;;;;;;;15.70;14.90;;;21.70;99.90;;;;;;4993644;28;20490;-76
2022/05/23 08:08:26;;;;;;;14.73;13.90;;;22.00;99.90;;;;;;4993061;28;20451;-74
2022/05/23 08:10:54;;;;;;;15.27;14.30;;;22.40;99.90;;;;;;4993155;28;20462;-75
2022/05/23 08:13:21;;;;;;;14.67;13.67;;;22.70;99.90;;;;;;4993171;28;20782;-75
2022/05/23 08:15:48;;;;;;;15.57;14.67;;;22.70;99.90;;;;;;4993260;28;20483;-76
2022/05/23 08:18:16;;;;;;;14.77;14.07;;;22.90;99.90;;;;;;4993239;28;20446;-74
2022/05/23 08:20:42;;;;;;;14.83;14.13;;;23.20;99.90;;;;;;4993049;28;20482;-75
2022/05/23 08:23:09;;;;;;;16.03;15.13;;;23.30;99.90;;;;;;4991884;28;20874;-76
2022/05/23 08:25:36;;;;;;;14.60;13.80;;;22.80;99.90;;;;;;4992755;28;20447;-75
2022/05/23 08:28:04;;;;;;;14.77;14.07;;;22.20;99.90;;;;;;4993176;28;20458;-75
2022/05/23 08:30:31;;;;;;;13.50;12.73;;;21.90;99.90;;;;;;4993259;28;20454;-75
2022/05/23 08:32:58;;;;;;;14.60;13.87;;;21.70;99.90;;;;;;4992817;28;20462;-73
2022/05/23 08:35:26;;;;;;;15.07;14.17;;;21.90;99.90;;;;;;4992919;28;20455;-75
2022/05/23 08:37:54;;;;;;;14.80;13.70;;;21.90;99.90;;;;;;4992631;28;20450;-75
2022/05/23 08:40:39;;;;;;;13.67;13.07;;;21.80;99.90;;;;;;4993151;28;20461;-75
2022/05/23 08:43:10;;;;;;;13.90;13.20;;;21.50;99.90;;;;;;4992877;28;20791;-75
2022/05/23 08:45:44;;;;;;;14.17;13.23;;;21.60;99.90;;;;;;4992504;28;20632;-75
2022/05/23 08:48:15;;;;;;;13.73;12.90;;;21.50;99.90;;;;;;4990701;28;20490;-75
2022/05/23 08:50:54;;;;;;;11.80;11.30;;;21.20;99.90;;;;;;4992645;28;20459;-75
2022/05/23 08:53:27;;;;;;;14.07;13.47;;;21.20;99.90;;;;;;4992173;28;20477;-75
2022/05/23 08:55:58;;;;;;;14.40;13.50;;;21.20;99.90;;;;;;4992434;28;20490;-75
2022/05/23 08:58:31;;;;;;;14.30;13.50;;;21.20;99.90;;;;;;4992395;28;20454;-75
2022/05/23 09:01:03;;;;;;;15.43;14.40;;;21.30;99.90;;;;;;4992478;28;20459;-75
2022/05/23 09:03:32;;;;;;;13.93;13.23;;;21.20;99.90;;;;;;4992392;28;20451;-76
2022/05/23 09:06:05;;;;;;;15.33;14.40;;;21.20;99.90;;;;;;4992599;28;20459;-74
2022/05/23 09:08:48;;;;;;;14.50;13.70;;;21.10;99.90;;;;;;4992346;28;20871;-75
2022/05/23 09:11:26;;;;;;;15.80;14.70;;;21.30;99.90;;;;;;4991993;28;20451;-74
2022/05/23 09:13:55;;;;;;;15.13;14.43;;;21.50;99.90;;;;;;4992631;28;20450;-76
2022/05/23 09:16:24;;;;;;;15.77;14.73;;;21.50;99.90;;;;;;4992216;28;20521;-74
2022/05/23 09:18:56;;;;;;;15.00;14.00;;;21.20;99.90;;;;;;4991814;28;20447;-74
2022/05/23 09:22:12;;;;;;;16.20;15.30;;;21.30;99.90;;;;;;4991763;28;20517;-75
2022/05/23 09:24:11;;;;;;;15.33;14.53;;;21.30;99.90;;;;;;4991782;28;20449;-75
2022/05/23 09:26:38;;;;;;;15.57;14.57;;;21.10;99.90;;;;;;4991566;28;20576;-76
2022/05/23 09:29:08;;;;;;;19.63;18.57;;;21.40;99.90;;;;;;4991637;28;20533;-80
2022/05/23 09:31:43;;;;;;;24.67;23.27;;;21.50;99.90;;;;;;4992151;28;20562;-75
2022/05/23 09:34:29;;;;;;;24.80;23.40;;;21.30;99.90;;;;;;4991573;28;20810;-76
2022/05/23 09:36:56;;;;;;;24.77;23.07;;;20.90;99.90;;;;;;4992587;28;20518;-77
2022/05/23 09:39:25;;;;;;;22.70;20.77;;;20.70;99.90;;;;;;4991622;28;20454;-75
2022/05/23 09:47:48;;;;;;;18.83;17.30;;;21.10;99.90;;;;;;4991428;28;20481;-75
2022/05/23 09:50:30;;;;;;;16.47;15.20;;;21.80;99.90;;;;;;4991417;28;20805;-75
2022/05/23 09:52:59;;;;;;;15.80;15.00;;;22.50;99.90;;;;;;4991524;28;20932;-77
2022/05/23 09:55:31;;;;;;;15.73;14.77;;;23.70;99.90;;;;;;4991140;28;20859;-74
2022/05/23 09:58:00;;;;;;;15.53;14.73;;;24.80;99.90;;;;;;4991739;28;20482;-75
2022/05/23 10:00:36;;;;;;;15.10;14.40;;;25.90;99.90;;;;;;4991504;28;20466;-74
2022/05/23 10:03:05;;;;;;;15.73;15.03;;;26.40;99.90;;;;;;4991154;28;20454;-75
2022/05/23 10:05:34;;;;;;;17.07;15.30;;;26.80;99.90;;;;;;4991718;28;20957;-75
2022/05/23 10:08:03;;;;;;;16.37;15.53;;;27.20;98.90;;;;;;4991729;28;20486;-75
2022/05/23 10:10:32;;;;;;;17.13;16.20;;;27.60;98.30;;;;;;4992313;28;20451;-75
2022/05/23 10:13:23;;;;;;;16.10;15.30;;;27.60;98.30;;;;;;4991813;28;20459;-75
2022/05/23 10:15:54;;;;;;;17.33;16.40;;;27.70;98.30;;;;;;4991346;28;20505;-76
2022/05/23 10:18:25;;;;;;;18.53;17.53;;;28.20;97.20;;;;;;4991320;28;20446;-75
2022/05/23 10:20:52;;;;;;;17.00;15.90;;;28.10;96.50;;;;;;4991518;28;20462;-75
2022/05/23 10:23:22;;;;;;;18.73;17.20;;;27.70;96.70;;;;;;4991574;28;20455;-76
2022/05/23 10:25:59;;;;;;;16.87;15.97;;;27.30;97.50;;;;;;4991839;28;20885;-77
2022/05/23 10:28:44;;;;;;;17.17;16.07;;;27.40;98.00;;;;;;4991804;28;20494;-76
2022/05/23 10:31:17;;;;;;;15.63;14.40;;;27.40;98.10;;;;;;4992401;28;20509;-77
2022/05/23 10:33:48;;;;;;;15.53;14.73;;;27.50;98.70;;;;;;4992338;28;20454;-76
2022/05/23 10:36:21;;;;;;;15.90;14.87;;;27.70;98.40;;;;;;4992269;28;20485;-76
2022/05/23 10:44:33;;;;;;;15.73;14.97;;;27.60;98.00;;;;;;4992271;28;20617;-76
2022/05/23 10:47:12;;;;;;;15.57;14.87;;;27.20;97.80;;;;;;4984614;28;20486;-76
2022/05/23 10:49:45;;;;;;;14.50;13.70;;;27.40;97.60;;;;;;4993661;28;20783;-77
2022/05/23 10:52:23;;;;;;;15.60;14.80;;;27.50;97.70;;;;;;4993098;28;20451;-76
2022/05/23 10:55:01;;;;;;;15.47;14.77;;;27.30;97.60;;;;;;4992264;28;20576;-75
2022/05/23 10:57:37;;;;;;;16.47;15.30;;;27.00;98.40;;;;;;4993155;28;20457;-76
2022/05/23 11:00:08;;;;;;;15.07;14.27;;;26.70;98.90;;;;;;4992345;28;20848;-76
2022/05/23 11:02:48;;;;;;;16.13;15.13;;;26.30;99.80;;;;;;4994685;28;20450;-76
2022/05/23 11:05:21;;;;;;;15.83;14.57;;;26.10;99.90;;;;;;4994238;28;20477;-77
2022/05/23 11:08:01;;;;;;;15.73;15.07;;;25.80;99.90;;;;;;4993793;28;20494;-77
2022/05/23 11:10:35;;;;;;;14.83;14.13;;;25.30;99.90;;;;;;4994320;28;20513;-75
2022/05/23 11:13:18;;;;;;;15.03;14.27;;;24.50;99.90;;;;;;4995225;28;20462;-76
2022/05/23 11:16:06;;;;;;;24.33;22.87;;;24.00;99.90;;;;;;4992885;28;20451;-78
2022/05/23 11:18:53;;;;;;;33.50;31.60;;;23.60;99.90;;;;;;4998394;28;20819;-79
2022/05/23 11:21:27;;;;;;;36.60;34.10;;;23.00;99.90;;;;;;4993188;28;20447;-77
2022/05/23 11:23:58;;;;;;;36.63;34.03;;;22.60;99.90;;;;;;4991945;28;20443;-73
2022/05/23 11:26:29;;;;;;;36.80;34.40;;;21.90;99.90;;;;;;4990443;28;20450;-73
2022/05/23 11:34:36;;;;;;;38.33;35.53;;;20.30;99.90;;;;;;4990684;28;20844;-73
2022/05/23 11:37:42;;;;;;;38.30;35.97;;;20.00;99.90;;;;;;4989103;28;20458;-74
2022/05/23 11:40:01;;;;;;;41.43;38.67;;;19.90;99.90;;;;;;4990156;28;20446;-75
2022/05/23 11:42:30;;;;;;;39.73;37.27;;;19.80;99.90;;;;;;4990780;28;20486;-75
2022/05/23 11:47:56;;;;;;;40.30;37.80;;;19.60;99.90;;;;;;4989890;28;20475;-73
2022/05/23 11:50:28;;;;;;;43.00;40.40;;;19.50;99.90;;;;;;4990419;28;20481;-76
2022/05/23 11:53:09;;;;;;;37.67;35.47;;;19.40;99.90;;;;;;4990894;28;20461;-75
2022/05/23 11:56:02;;;;;;;40.63;38.13;;;19.30;99.90;;;;;;4990938;28;21189;-74
2022/05/23 11:58:47;;;;;;;38.30;36.20;;;19.10;99.90;;;;;;4990938;28;20454;-74
2022/05/23 12:01:21;;;;;;;38.93;36.83;;;18.90;99.90;;;;;;4993751;28;20454;-73
2022/05/23 12:04:19;;;;;;;38.27;36.20;;;18.70;99.90;;;;;;4993341;28;20462;-74
2022/05/23 12:06:47;;;;;;;39.90;37.70;;;18.50;99.90;;;;;;4933284;29;20449;-73
2022/05/23 12:09:26;;;;;;;39.60;37.50;;;18.40;99.90;;;;;;4979871;28;20485;-74
2022/05/23 12:12:44;;;;;;;39.13;36.90;;;18.30;99.90;;;;;;4993533;28;20807;-73
2022/05/23 12:15:11;;;;;;;38.03;35.43;;;18.20;99.90;;;;;;4993153;28;20501;-72
2022/05/23 12:17:38;;;;;;;36.50;34.50;;;18.00;99.90;;;;;;4993044;28;20976;-74
2022/05/23 12:20:23;;;;;;;36.07;34.00;;;17.90;99.90;;;;;;4993449;28;20972;-76
2022/05/23 12:23:14;;;;;;;35.23;33.23;;;17.80;99.90;;;;;;4992763;28;20573;-74
2022/05/23 12:25:41;;;;;;;38.97;36.90;;;17.70;99.90;;;;;;4992787;28;20450;-73
2022/05/23 12:28:20;;;;;;;37.90;35.80;;;17.70;99.90;;;;;;4992664;28;21016;-73
2022/05/23 12:31:06;;;;;;;36.70;34.37;;;17.70;99.90;;;;;;4992980;28;20465;-73
2022/05/23 12:33:34;;;;;;;34.33;32.50;;;17.60;99.90;;;;;;4993212;28;20465;-71
2022/05/23 12:36:08;;;;;;;31.67;29.93;;;17.80;99.90;;;;;;4993469;28;20455;-74
2022/05/23 12:38:59;;;;;;;33.83;31.60;;;17.90;99.90;;;;;;4993221;28;20451;-72
2022/05/23 12:41:50;;;;;;;32.70;30.90;;;18.20;99.90;;;;;;4990975;28;20467;-71
2022/05/23 12:44:43;;;;;;;32.27;30.20;;;18.50;99.90;;;;;;4990115;28;20522;-71
2022/05/23 12:47:25;;;;;;;30.57;29.07;;;18.60;99.90;;;;;;4993395;28;20490;-73
2022/05/23 12:50:02;;;;;;;28.27;26.43;;;18.80;99.90;;;;;;4993059;28;20451;-72
2022/05/23 12:52:51;;;;;;;23.47;22.17;;;18.90;99.90;;;;;;4993161;28;20459;-72
2022/05/23 12:55:40;;;;;;;23.73;22.30;;;19.10;99.90;;;;;;4992809;28;20487;-72
2022/05/23 12:58:38;;;;;;;19.67;18.57;;;19.50;99.90;;;;;;4990939;28;20475;-73
2022/05/23 13:01:08;;;;;;;18.30;17.10;;;20.00;99.90;;;;;;4992118;28;20941;-72
2022/05/23 13:03:42;;;;;;;18.23;16.97;;;20.70;99.90;;;;;;4992694;28;20550;-72
2022/05/23 13:06:15;;;;;;;17.70;16.60;;;21.30;99.90;;;;;;4992920;28;20480;-74
2022/05/23 13:08:47;;;;;;;15.37;14.43;;;22.10;99.90;;;;;;4973511;28;20491;-74
2022/05/23 13:11:21;;;;;;;13.20;12.60;;;22.90;99.90;;;;;;4973290;28;20980;-74
2022/05/23 13:13:49;;;;;;;13.70;13.10;;;23.20;99.90;;;;;;4973481;28;20451;-76
2022/05/23 13:16:24;;;;;;;14.60;13.53;;;23.30;99.90;;;;;;4986186;28;20458;-75
2022/05/23 13:27:11;;;;;;;12.73;12.10;;;23.10;99.90;;;;;;4992614;28;20450;-76
2022/05/23 13:29:39;;;;;;;12.43;11.80;;;23.40;99.90;;;;;;4992695;28;20497;-78
2022/05/23 13:32:10;;;;;;;13.17;12.37;;;23.70;99.90;;;;;;4992652;28;20469;-78
2022/05/23 13:34:41;;;;;;;11.83;11.33;;;24.50;99.90;;;;;;4990849;28;20458;-77
2022/05/23 13:37:08;;;;;;;12.23;11.63;;;24.90;99.90;;;;;;4992329;28;20458;-79
2022/05/23 13:39:43;;;;;;;13.80;13.00;;;25.50;99.90;;;;;;4992385;28;20459;-78
2022/05/23 13:42:20;;;;;;;13.60;12.70;;;25.90;99.90;;;;;;4992344;28;20447;-78
2022/05/23 13:44:47;;;;;;;13.37;12.50;;;26.40;99.90;;;;;;4992452;28;20451;-77
2022/05/23 13:47:18;;;;;;;14.10;13.20;;;27.00;99.90;;;;;;4992180;28;20948;-78
2022/05/23 13:49:47;;;;;;;14.27;13.40;;;27.10;99.90;;;;;;4992445;28;20491;-78
2022/05/23 13:52:17;;;;;;;13.00;12.30;;;27.40;99.90;;;;;;4992025;28;20450;-77
2022/05/23 13:54:50;;;;;;;14.27;13.47;;;27.20;99.90;;;;;;4992107;28;20495;-78
2022/05/23 13:57:22;;;;;;;13.77;13.07;;;26.00;99.90;;;;;;4992412;28;20549;-78
2022/05/23 13:59:53;;;;;;;14.77;13.80;;;25.90;99.90;;;;;;4992088;28;20938;-80
2022/05/23 14:02:23;;;;;;;14.37;13.43;;;26.00;99.90;;;;;;4991822;28;20450;-80
2022/05/23 14:04:53;;;;;;;13.47;12.77;;;25.80;99.90;;;;;;4992471;28;20957;-79
2022/05/23 14:07:24;;;;;;;15.17;14.17;;;25.80;99.90;;;;;;4992485;28;20455;-81
2022/05/23 14:09:54;;;;;;;13.83;13.13;;;25.30;99.90;;;;;;4993374;28;20509;-84
2022/05/23 14:12:27;;;;;;;13.70;13.00;;;25.30;99.90;;;;;;4993087;28;20447;-83
2022/05/23 14:14:56;;;;;;;14.10;13.10;;;25.50;99.90;;;;;;4992423;28;20509;-82